Time;durP1;ratioP1;P1;durP2;ratioP2;P2;SDS_P1;SDS_P2;PMS_P1;PMS_P2;Temp;Humidity;BMP_temperature;BMP_pressure;BME280_temperature;BME280_humidity;BME280_pressure;Samples;Min_cycle;Max_cycle;Signal;HPM_P1;HPM_P2
2022/04/19 00:01:42;;;;;;;9.88;6.82;;;10.90;61.60;;;;;;4958781;28;20077;-63
2022/04/19 00:04:09;;;;;;;10.30;7.25;;;10.80;61.80;;;;;;4970460;28;20050;-63
2022/04/19 00:06:36;;;;;;;13.32;7.45;;;10.80;62.00;;;;;;4949480;28;20050;-63
2022/04/19 00:09:03;;;;;;;11.32;7.75;;;10.80;62.20;;;;;;4955218;28;20057;-63
2022/04/19 00:11:29;;;;;;;10.23;7.38;;;10.70;62.30;;;;;;4973541;28;21167;-63
2022/04/19 00:13:56;;;;;;;12.75;8.02;;;10.60;62.40;;;;;;4960638;28;20043;-63
2022/04/19 00:16:22;;;;;;;10.60;7.35;;;10.60;62.70;;;;;;4970161;28;20053;-63
2022/04/19 00:18:48;;;;;;;12.18;7.78;;;10.60;62.90;;;;;;4949686;28;20488;-63
2022/04/19 00:21:14;;;;;;;11.68;7.50;;;10.50;62.90;;;;;;4966055;28;20061;-64
2022/04/19 00:23:40;;;;;;;12.40;8.02;;;10.50;63.10;;;;;;4966332;28;20504;-64
2022/04/19 00:26:06;;;;;;;12.15;8.00;;;10.50;64.00;;;;;;4971121;28;20057;-64
2022/04/19 00:28:31;;;;;;;11.23;7.53;;;10.50;63.60;;;;;;4956702;28;20047;-63
2022/04/19 00:30:58;;;;;;;11.40;7.70;;;10.40;63.80;;;;;;4959451;28;20176;-63
2022/04/19 00:33:24;;;;;;;10.50;7.43;;;10.40;64.00;;;;;;4956372;28;20045;-63
2022/04/19 00:35:49;;;;;;;12.73;8.40;;;10.40;64.00;;;;;;4971740;28;20871;-64
2022/04/19 00:38:15;;;;;;;11.27;7.90;;;10.30;64.20;;;;;;4958142;28;20061;-64
2022/04/19 00:40:41;;;;;;;11.70;7.78;;;10.30;64.40;;;;;;4960940;28;20488;-63
2022/04/19 00:43:09;;;;;;;10.00;7.63;;;10.30;64.70;;;;;;4965266;28;20057;-63
2022/04/19 00:45:35;;;;;;;12.55;8.65;;;10.20;64.80;;;;;;4964593;28;20094;-63
2022/04/19 00:48:02;;;;;;;12.88;7.60;;;10.20;65.10;;;;;;4967716;28;20050;-63
2022/04/19 00:50:30;;;;;;;11.93;8.13;;;10.20;65.40;;;;;;4960293;28;20412;-62
2022/04/19 00:52:57;;;;;;;12.10;8.18;;;10.20;65.60;;;;;;4982108;28;20079;-63
2022/04/19 00:55:23;;;;;;;11.57;7.70;;;10.10;65.60;;;;;;4967243;28;20174;-64
2022/04/19 00:57:50;;;;;;;13.93;8.07;;;10.10;65.60;;;;;;4948439;28;20050;-63
2022/04/19 01:00:17;;;;;;;12.68;8.25;;;10.10;65.60;;;;;;4953911;28;20088;-63
2022/04/19 01:02:43;;;;;;;14.48;8.18;;;10.10;65.90;;;;;;4954525;28;20151;-63
2022/04/19 01:05:09;;;;;;;10.35;7.43;;;10.10;66.00;;;;;;4967292;28;20042;-63
2022/04/19 01:07:37;;;;;;;11.98;8.02;;;10.10;66.20;;;;;;4960881;28;20392;-63
2022/04/19 01:10:03;;;;;;;11.38;7.53;;;10.00;66.10;;;;;;4958373;28;21186;-63
2022/04/19 01:15:16;;;;;;;10.30;7.72;;;10.00;66.80;;;;;;4959258;28;20050;-64
2022/04/19 01:17:42;;;;;;;11.48;7.82;;;9.90;66.80;;;;;;4981965;28;20046;-63
2022/04/19 01:20:09;;;;;;;12.57;7.60;;;9.90;66.90;;;;;;4962756;28;20111;-63
2022/04/19 01:22:40;;;;;;;11.27;7.82;;;9.90;67.30;;;;;;4952470;28;20064;-63
2022/04/19 01:25:07;;;;;;;15.40;8.50;;;9.90;67.50;;;;;;4962467;28;20193;-63
2022/04/19 01:27:34;;;;;;;12.02;8.02;;;9.80;67.60;;;;;;4966675;28;20054;-63
2022/04/19 01:30:03;;;;;;;10.93;7.35;;;9.80;68.40;;;;;;4956314;28;20608;-63
2022/04/19 01:32:33;;;;;;;11.82;8.02;;;9.70;68.60;;;;;;4964730;28;20053;-63
2022/04/19 01:35:10;;;;;;;11.90;8.32;;;9.70;69.50;;;;;;4967734;28;20054;-63
2022/04/19 01:37:37;;;;;;;13.00;8.27;;;9.60;70.00;;;;;;4961744;28;20046;-63
2022/04/19 01:40:17;;;;;;;13.00;8.73;;;9.60;70.80;;;;;;4956124;28;20050;-63
2022/04/19 01:42:54;;;;;;;13.05;8.20;;;9.50;71.20;;;;;;4982660;28;20124;-63
2022/04/19 01:45:27;;;;;;;13.48;9.07;;;9.50;72.10;;;;;;4966506;28;20080;-63
2022/04/19 01:47:58;;;;;;;14.52;8.55;;;9.40;72.80;;;;;;4964601;28;20081;-63
2022/04/19 01:50:28;;;;;;;12.07;8.73;;;9.40;73.30;;;;;;4951260;28;20054;-63
2022/04/19 01:52:57;;;;;;;11.95;8.30;;;9.40;73.90;;;;;;4964500;28;20077;-63
2022/04/19 01:55:23;;;;;;;12.35;8.55;;;9.30;74.30;;;;;;4966388;28;20050;-63
2022/04/19 01:57:58;;;;;;;10.68;8.18;;;9.30;74.60;;;;;;4952456;28;20057;-63
2022/04/19 02:00:25;;;;;;;10.73;8.15;;;9.30;75.10;;;;;;4959456;28;20053;-63
2022/04/19 02:02:55;;;;;;;12.63;8.65;;;9.20;75.80;;;;;;4948954;28;20494;-64
2022/04/19 02:05:21;;;;;;;11.27;8.52;;;9.20;76.50;;;;;;4969095;28;20484;-62
2022/04/19 02:07:47;;;;;;;12.15;8.43;;;9.20;76.90;;;;;;4950716;28;20120;-63
2022/04/19 02:10:16;;;;;;;11.40;8.38;;;9.20;77.50;;;;;;4959698;28;20129;-63
2022/04/19 02:12:42;;;;;;;11.13;7.88;;;9.20;78.10;;;;;;4971763;28;20038;-63
2022/04/19 02:15:09;;;;;;;13.25;7.80;;;9.20;78.20;;;;;;4965598;28;20046;-62
2022/04/19 02:17:44;;;;;;;13.10;8.35;;;9.10;78.20;;;;;;4969575;28;20051;-62
2022/04/19 02:20:11;;;;;;;11.43;7.50;;;9.10;79.10;;;;;;4976374;28;20053;-62
2022/04/19 02:22:39;;;;;;;11.32;7.90;;;9.10;79.00;;;;;;4965767;28;20103;-63
2022/04/19 02:25:06;;;;;;;11.98;8.02;;;9.00;79.30;;;;;;4984694;28;20105;-63
2022/04/19 02:27:33;;;;;;;12.85;8.38;;;9.00;80.10;;;;;;4968186;28;20617;-63
2022/04/19 02:30:04;;;;;;;10.43;7.70;;;9.00;80.90;;;;;;4967563;28;20073;-63
2022/04/19 02:32:33;;;;;;;10.93;7.68;;;9.00;81.70;;;;;;4938271;28;20096;-64
2022/04/19 02:34:59;;;;;;;12.38;8.40;;;9.00;82.10;;;;;;4964961;28;20060;-62
2022/04/19 02:37:27;;;;;;;11.25;7.85;;;8.90;82.70;;;;;;4950581;28;20668;-63
2022/04/19 02:39:53;;;;;;;12.43;8.30;;;8.90;83.10;;;;;;4937954;28;20060;-63
2022/04/19 02:42:19;;;;;;;13.20;8.43;;;8.90;84.00;;;;;;4945348;28;20139;-62
2022/04/19 02:44:45;;;;;;;12.95;8.23;;;8.90;84.20;;;;;;4966916;28;20112;-62
2022/04/19 02:47:11;;;;;;;12.73;8.13;;;8.80;85.00;;;;;;4964326;28;20506;-64
2022/04/19 02:49:39;;;;;;;12.25;8.02;;;8.80;86.40;;;;;;4966228;28;20118;-63
2022/04/19 02:52:05;;;;;;;11.13;8.02;;;8.80;86.70;;;;;;4965462;28;20121;-62
2022/04/19 02:54:31;;;;;;;12.40;8.25;;;8.80;87.20;;;;;;4966090;28;20645;-63
2022/04/19 02:56:57;;;;;;;12.25;8.45;;;8.70;88.10;;;;;;4982632;28;20065;-63
2022/04/19 02:59:24;;;;;;;10.98;8.07;;;8.70;88.60;;;;;;4951332;28;20054;-62
2022/04/19 03:01:50;;;;;;;13.10;7.65;;;8.70;89.40;;;;;;4969215;28;20050;-63
2022/04/19 03:04:17;;;;;;;11.48;7.95;;;8.70;90.10;;;;;;4963893;28;21005;-63
2022/04/19 03:06:43;;;;;;;11.13;7.88;;;8.70;90.40;;;;;;4956478;28;20063;-63
2022/04/19 03:09:09;;;;;;;11.15;7.72;;;8.70;90.70;;;;;;4956558;28;20050;-62
2022/04/19 03:11:35;;;;;;;11.45;7.50;;;8.60;90.90;;;;;;4990544;28;20503;-63
2022/04/19 03:14:01;;;;;;;12.13;7.72;;;8.60;91.10;;;;;;4954944;28;20042;-63
2022/04/19 03:16:27;;;;;;;11.07;7.57;;;8.60;91.70;;;;;;4967501;28;20093;-62
2022/04/19 03:18:53;;;;;;;11.60;8.15;;;8.60;91.80;;;;;;4969277;28;20042;-63
2022/04/19 03:21:19;;;;;;;12.35;7.70;;;8.60;92.20;;;;;;4979845;28;20391;-63
2022/04/19 03:29:13;;;;;;;10.98;7.82;;;8.50;93.10;;;;;;4948786;28;20046;-62
2022/04/19 03:31:39;;;;;;;11.82;8.00;;;8.50;93.60;;;;;;4948949;28;20117;-62
2022/04/19 03:34:06;;;;;;;10.98;7.90;;;8.50;93.80;;;;;;4956073;28;20050;-62
2022/04/19 03:36:32;;;;;;;12.60;7.75;;;8.40;94.10;;;;;;4958651;28;20068;-62
2022/04/19 03:39:01;;;;;;;12.57;8.23;;;8.40;94.60;;;;;;4962382;28;20050;-62
2022/04/19 03:41:27;;;;;;;11.75;8.00;;;8.40;94.80;;;;;;4965193;28;20492;-62
2022/04/19 03:43:53;;;;;;;10.90;8.15;;;8.50;95.10;;;;;;4949377;28;20061;-63
2022/04/19 03:46:18;;;;;;;12.80;7.97;;;8.40;95.20;;;;;;4966391;28;20416;-63
2022/04/19 03:48:44;;;;;;;12.90;8.40;;;8.30;95.50;;;;;;4946491;28;21284;-63
2022/04/19 03:51:10;;;;;;;10.63;7.43;;;8.30;95.40;;;;;;4953354;28;20149;-63
2022/04/19 03:53:36;;;;;;;11.63;8.35;;;8.20;95.80;;;;;;4971447;28;20056;-63
2022/04/19 03:56:04;;;;;;;11.73;7.65;;;8.20;95.80;;;;;;4932424;28;20109;-63
2022/04/19 03:58:32;;;;;;;12.38;7.63;;;8.20;95.90;;;;;;4960181;28;20057;-63
2022/04/19 04:01:01;;;;;;;14.43;8.20;;;8.20;95.90;;;;;;4946839;28;20468;-63
2022/04/19 04:03:28;;;;;;;12.88;7.78;;;8.20;96.00;;;;;;4965151;28;20058;-64
2022/04/19 04:05:55;;;;;;;13.55;8.55;;;8.20;96.30;;;;;;4954953;28;20054;-63
2022/04/19 04:08:21;;;;;;;12.52;8.40;;;8.10;96.60;;;;;;4941816;28;20085;-63
2022/04/19 04:10:47;;;;;;;12.90;8.60;;;8.10;96.50;;;;;;4962102;28;20051;-63
2022/04/19 04:13:13;;;;;;;11.57;7.80;;;8.10;96.80;;;;;;4959182;28;20113;-62
2022/04/19 04:15:39;;;;;;;11.23;7.88;;;8.10;96.80;;;;;;4946963;28;20101;-63
2022/04/19 04:18:05;;;;;;;12.90;8.00;;;8.10;97.10;;;;;;4948025;28;20094;-63
2022/04/19 04:20:31;;;;;;;11.95;8.30;;;8.10;97.20;;;;;;4939572;28;20053;-63
2022/04/19 04:22:57;;;;;;;13.50;8.80;;;8.00;97.20;;;;;;4935116;28;20055;-63
2022/04/19 04:25:23;;;;;;;12.95;8.60;;;8.00;97.40;;;;;;4951611;28;20847;-63
2022/04/19 04:27:49;;;;;;;13.38;8.50;;;8.00;97.50;;;;;;4939012;28;20226;-61
2022/04/19 04:30:15;;;;;;;17.23;9.13;;;8.00;97.70;;;;;;4948684;28;20509;-63
2022/04/19 04:32:41;;;;;;;13.43;8.45;;;8.00;97.80;;;;;;4960435;28;20454;-62
2022/04/19 04:35:08;;;;;;;13.93;8.48;;;8.00;98.00;;;;;;4962660;28;20054;-63
2022/04/19 04:37:34;;;;;;;12.38;8.23;;;8.00;98.20;;;;;;4959353;28;20039;-63
2022/04/19 04:40:00;;;;;;;13.60;8.57;;;8.00;98.40;;;;;;4950471;28;20073;-63
2022/04/19 04:42:26;;;;;;;14.40;8.95;;;7.90;98.50;;;;;;4947982;28;20158;-63
2022/04/19 04:44:51;;;;;;;14.27;9.02;;;7.90;98.60;;;;;;4960941;28;20055;-62
2022/04/19 04:50:02;;;;;;;14.38;9.13;;;7.90;98.80;;;;;;4949587;28;20046;-63
2022/04/19 04:52:27;;;;;;;14.82;8.70;;;7.90;99.00;;;;;;4945308;28;20082;-62
2022/04/19 04:54:53;;;;;;;17.40;8.63;;;7.90;99.00;;;;;;4950496;28;20055;-63
2022/04/19 04:57:19;;;;;;;18.65;9.15;;;7.90;99.10;;;;;;4953564;28;20117;-62
2022/04/19 04:59:48;;;;;;;14.75;9.15;;;7.90;99.20;;;;;;4953855;28;20081;-63
2022/04/19 05:02:13;;;;;;;18.00;9.00;;;7.90;99.30;;;;;;4931837;28;20049;-62
2022/04/19 05:04:39;;;;;;;13.82;8.85;;;7.90;99.30;;;;;;4964539;28;20482;-63
2022/04/19 05:07:05;;;;;;;18.88;9.98;;;7.90;99.40;;;;;;4960425;28;20047;-63
2022/04/19 05:09:31;;;;;;;17.42;9.57;;;7.90;99.60;;;;;;4942271;28;20370;-62
2022/04/19 05:11:57;;;;;;;16.08;9.13;;;7.90;99.60;;;;;;4942681;28;20043;-63
2022/04/19 05:14:23;;;;;;;16.00;9.07;;;7.90;99.70;;;;;;4975101;28;20314;-63
2022/04/19 05:16:49;;;;;;;14.32;9.40;;;7.90;99.80;;;;;;4960202;28;20481;-63
2022/04/19 05:19:15;;;;;;;14.40;8.52;;;8.00;99.90;;;;;;4960488;28;20089;-61
2022/04/19 05:21:41;;;;;;;16.38;9.07;;;7.90;99.90;;;;;;4964564;28;20153;-63
2022/04/19 05:24:08;;;;;;;12.77;8.50;;;8.00;99.90;;;;;;4949438;28;20598;-63
2022/04/19 05:26:35;;;;;;;14.48;8.93;;;8.10;99.90;;;;;;4951404;28;20580;-62
2022/04/19 05:29:02;;;;;;;16.92;8.93;;;8.00;99.90;;;;;;4967786;28;20050;-62
2022/04/19 05:31:28;;;;;;;14.70;8.68;;;8.00;99.90;;;;;;4961810;28;20439;-63
2022/04/19 05:33:54;;;;;;;17.55;9.32;;;8.00;99.90;;;;;;4959573;28;20057;-63
2022/04/19 05:36:19;;;;;;;14.55;9.25;;;8.10;99.90;;;;;;4962978;28;20078;-62
2022/04/19 05:38:45;;;;;;;13.95;8.98;;;8.10;99.90;;;;;;4960958;28;20757;-63
2022/04/19 05:41:11;;;;;;;18.20;9.10;;;8.10;99.90;;;;;;4944646;28;20715;-63
2022/04/19 05:43:37;;;;;;;14.98;9.63;;;8.20;99.90;;;;;;4945964;28;20571;-62
2022/04/19 05:46:03;;;;;;;13.77;9.25;;;8.20;99.90;;;;;;4964696;28;20385;-62
2022/04/19 05:48:29;;;;;;;15.27;8.80;;;8.20;99.90;;;;;;4969236;28;20047;-63
2022/04/19 05:50:55;;;;;;;14.48;9.18;;;8.30;99.90;;;;;;4947247;28;20501;-63
2022/04/19 05:53:21;;;;;;;15.73;8.88;;;8.30;99.90;;;;;;4948911;28;20061;-63
2022/04/19 05:55:47;;;;;;;13.60;8.90;;;8.30;99.90;;;;;;4956740;28;20051;-63
2022/04/19 05:58:13;;;;;;;15.45;9.30;;;8.40;99.90;;;;;;4963245;28;20583;-63
2022/04/19 06:00:39;;;;;;;15.15;10.05;;;8.40;99.90;;;;;;4956997;28;20520;-62
2022/04/19 06:05:49;;;;;;;14.88;9.10;;;8.50;99.90;;;;;;4958787;28;22987;-63
2022/04/19 06:08:15;;;;;;;15.48;8.90;;;8.50;99.90;;;;;;4960898;28;20053;-63
2022/04/19 06:10:41;;;;;;;15.65;8.73;;;8.60;99.90;;;;;;4960023;28;20493;-63
2022/04/19 06:13:07;;;;;;;17.10;9.25;;;8.60;99.90;;;;;;4955924;28;20050;-59
2022/04/19 06:15:34;;;;;;;15.77;8.45;;;8.70;99.90;;;;;;4963713;28;20556;-59
2022/04/19 06:18:00;;;;;;;15.50;8.50;;;8.70;99.90;;;;;;4957694;28;20065;-59
2022/04/19 06:20:26;;;;;;;16.17;8.77;;;8.70;99.90;;;;;;4967365;28;20150;-56
2022/04/19 06:22:52;;;;;;;17.25;9.20;;;8.80;99.90;;;;;;4966456;28;20056;-59
2022/04/19 06:25:18;;;;;;;14.35;9.18;;;8.90;99.90;;;;;;4965117;28;20043;-57
2022/04/19 06:27:45;;;;;;;15.63;8.82;;;8.90;99.90;;;;;;4982390;28;20379;-58
2022/04/19 06:30:11;;;;;;;13.52;8.45;;;9.00;99.90;;;;;;4970579;28;20057;-58
2022/04/19 06:32:37;;;;;;;14.43;8.65;;;9.10;99.80;;;;;;4989341;28;20416;-58
2022/04/19 06:35:04;;;;;;;13.57;8.98;;;9.10;99.60;;;;;;4989368;28;20124;-60
2022/04/19 06:37:30;;;;;;;14.20;8.40;;;9.20;99.60;;;;;;4989399;28;20046;-58
2022/04/19 06:40:04;;;;;;;12.23;8.15;;;9.30;99.50;;;;;;4984909;28;20050;-59
2022/04/19 06:42:30;;;;;;;15.52;8.20;;;9.40;99.50;;;;;;4985418;28;20104;-59
2022/04/19 06:44:56;;;;;;;16.17;7.93;;;9.50;99.10;;;;;;4986995;28;20870;-60
2022/04/19 06:47:24;;;;;;;13.13;7.78;;;9.60;99.00;;;;;;4990058;28;20104;-59
2022/04/19 06:49:51;;;;;;;14.32;8.65;;;9.70;98.80;;;;;;4969536;28;20042;-59
2022/04/19 06:52:17;;;;;;;13.48;7.72;;;9.80;98.60;;;;;;4953987;28;20046;-60
2022/04/19 06:54:43;;;;;;;12.15;7.90;;;9.90;98.40;;;;;;4992526;28;20457;-60
2022/04/19 06:57:08;;;;;;;12.35;7.68;;;10.00;98.20;;;;;;4993267;28;20684;-60
2022/04/19 06:59:34;;;;;;;10.63;7.57;;;10.10;98.00;;;;;;4972625;28;20054;-58
2022/04/19 07:02:00;;;;;;;15.80;7.53;;;10.20;98.00;;;;;;4969221;28;20548;-60
2022/04/19 07:04:26;;;;;;;12.25;6.68;;;10.30;97.70;;;;;;4975621;28;20357;-59
2022/04/19 07:06:52;;;;;;;11.75;6.82;;;10.40;97.30;;;;;;4990048;28;20097;-59
2022/04/19 07:09:18;;;;;;;11.60;6.90;;;10.50;96.90;;;;;;4978537;28;20049;-59
2022/04/19 07:11:44;;;;;;;10.52;6.75;;;10.60;96.60;;;;;;4987511;28;20038;-59
2022/04/19 07:14:09;;;;;;;11.48;6.88;;;10.70;96.40;;;;;;4967239;28;20558;-60
2022/04/19 07:16:36;;;;;;;10.80;6.88;;;10.80;96.10;;;;;;4958196;28;20046;-59
2022/04/19 07:19:01;;;;;;;12.55;7.03;;;11.00;95.80;;;;;;4971942;28;20050;-59
2022/04/19 07:26:37;;;;;;;11.32;6.75;;;11.20;95.40;;;;;;4988422;28;20046;-59
2022/04/19 07:27:15;;;;;;;9.98;6.55;;;11.40;95.10;;;;;;4985428;28;20156;-59
2022/04/19 07:29:42;;;;;;;10.20;6.13;;;11.50;94.60;;;;;;4970595;28;20054;-58
2022/04/19 07:32:08;;;;;;;10.90;6.20;;;11.50;93.90;;;;;;4989755;28;20490;-58
2022/04/19 07:34:34;;;;;;;11.68;5.97;;;11.70;93.40;;;;;;4973681;28;20128;-60
2022/04/19 07:37:00;;;;;;;7.90;5.57;;;11.70;93.20;;;;;;4985696;28;20049;-59
2022/04/19 07:39:26;;;;;;;10.80;6.03;;;11.90;93.00;;;;;;4984788;28;20662;-59
2022/04/19 07:41:53;;;;;;;9.35;5.80;;;12.00;92.90;;;;;;4989033;28;20057;-60
2022/04/19 07:44:19;;;;;;;10.38;6.63;;;12.20;92.60;;;;;;4987489;28;20046;-58
2022/04/19 07:46:45;;;;;;;12.98;6.50;;;12.30;92.40;;;;;;4976971;28;20053;-60
2022/04/19 07:49:11;;;;;;;11.20;6.55;;;12.40;91.80;;;;;;4991299;28;20053;-60
2022/04/19 07:51:37;;;;;;;8.68;6.10;;;12.50;91.50;;;;;;4981059;28;20053;-59
2022/04/19 07:54:03;;;;;;;7.65;5.45;;;12.60;91.20;;;;;;4970102;28;20050;-60
2022/04/19 07:56:29;;;;;;;9.90;5.80;;;12.70;90.60;;;;;;4989596;28;20049;-59
2022/04/19 07:58:55;;;;;;;12.45;5.05;;;12.80;90.10;;;;;;4982874;28;20061;-59
2022/04/19 08:01:23;;;;;;;14.65;5.00;;;12.90;89.40;;;;;;4970436;28;20042;-59
2022/04/19 08:03:49;;;;;;;6.18;4.72;;;13.10;88.40;;;;;;4988734;28;20039;-60
2022/04/19 08:06:15;;;;;;;8.07;4.97;;;13.20;86.00;;;;;;4969806;28;20061;-60
2022/04/19 08:08:43;;;;;;;9.23;4.53;;;13.30;84.00;;;;;;4989619;28;20052;-60
2022/04/19 08:11:09;;;;;;;8.45;4.50;;;13.40;81.90;;;;;;4971119;28;20039;-58
2022/04/19 08:13:35;;;;;;;6.95;4.50;;;13.50;81.00;;;;;;4989846;28;20564;-60
2022/04/19 08:16:01;;;;;;;7.18;4.88;;;13.70;80.90;;;;;;4986699;28;20057;-59
2022/04/19 08:18:27;;;;;;;7.38;3.95;;;13.80;78.90;;;;;;4990811;28;20468;-59
2022/04/19 08:20:53;;;;;;;4.57;3.85;;;13.90;77.50;;;;;;4968092;28;20137;-60
2022/04/19 08:23:19;;;;;;;5.55;4.05;;;14.00;75.60;;;;;;4986978;28;20054;-59
2022/04/19 08:25:45;;;;;;;6.00;4.32;;;14.00;74.10;;;;;;4969906;28;20164;-60
2022/04/19 08:28:11;;;;;;;5.43;3.65;;;14.00;73.30;;;;;;4970004;28;20525;-60
2022/04/19 08:30:37;;;;;;;5.22;3.67;;;14.10;72.10;;;;;;4989358;28;20042;-59
2022/04/19 08:33:03;;;;;;;4.28;3.47;;;14.20;70.70;;;;;;4987375;28;20128;-60
2022/04/19 08:35:29;;;;;;;6.53;3.55;;;14.20;69.90;;;;;;4972080;28;20054;-60
2022/04/19 08:37:56;;;;;;;6.13;3.20;;;14.30;69.20;;;;;;4966686;28;20519;-58
2022/04/19 08:40:22;;;;;;;4.07;2.80;;;14.40;68.50;;;;;;4978784;28;20081;-59
2022/04/19 08:42:48;;;;;;;3.95;2.60;;;14.40;67.20;;;;;;4989570;28;20096;-60
2022/04/19 08:45:15;;;;;;;3.80;2.30;;;14.50;66.40;;;;;;4987793;28;20483;-59
2022/04/19 08:47:44;;;;;;;2.80;2.00;;;14.70;65.60;;;;;;4983707;28;20529;-60
2022/04/19 08:50:17;;;;;;;2.55;1.77;;;14.80;63.60;;;;;;4984446;28;20050;-59
2022/04/19 08:52:44;;;;;;;1.88;1.60;;;14.90;62.70;;;;;;4966603;28;20054;-60
2022/04/19 08:57:56;;;;;;;1.85;1.60;;;15.10;60.50;;;;;;4987512;28;20164;-60
2022/04/19 09:00:23;;;;;;;3.80;2.03;;;15.10;60.40;;;;;;4988336;28;20412;-60
2022/04/19 09:02:54;;;;;;;2.47;1.60;;;15.20;60.20;;;;;;4986366;28;20046;-61
2022/04/19 09:05:23;;;;;;;4.00;2.05;;;15.30;59.00;;;;;;4974950;28;20080;-60
2022/04/19 09:07:53;;;;;;;2.83;1.80;;;15.30;58.70;;;;;;4969033;28;20394;-61
2022/04/19 09:10:30;;;;;;;3.00;1.75;;;15.30;59.00;;;;;;4980193;28;20523;-60
2022/04/19 09:12:59;;;;;;;3.30;1.95;;;15.40;58.90;;;;;;4956849;28;20077;-58
2022/04/19 09:15:42;;;;;;;4.07;2.03;;;15.40;59.00;;;;;;4988259;28;20060;-61
2022/04/19 09:18:15;;;;;;;;;;;15.50;59.30;;;;;;4988632;28;20096;-59
2022/04/19 09:20:41;;;;;;;3.85;2.20;;;15.60;59.80;;;;;;4956996;28;19921;-60
2022/04/19 09:23:09;;;;;;;5.82;2.05;;;15.60;59.40;;;;;;4987506;28;20424;-60
2022/04/19 09:25:36;;;;;;;2.78;2.00;;;15.70;59.20;;;;;;4971618;28;20084;-60
2022/04/19 09:28:13;;;;;;;2.40;1.88;;;15.80;59.20;;;;;;4983626;28;20424;-59
2022/04/19 09:30:39;;;;;;;4.32;2.03;;;15.90;59.40;;;;;;4988755;28;20054;-60
2022/04/19 09:33:06;;;;;;;5.53;2.80;;;16.10;59.30;;;;;;4987574;28;20054;-60
2022/04/19 09:35:36;;;;;;;3.20;2.28;;;16.10;58.90;;;;;;4986363;28;20046;-60
2022/04/19 09:38:04;;;;;;;5.80;3.08;;;16.20;58.80;;;;;;4986476;28;20057;-59
2022/04/19 09:40:38;;;;;;;6.75;2.80;;;16.20;58.90;;;;;;4983898;28;20046;-60
2022/04/19 09:43:10;;;;;;;5.90;2.85;;;16.30;59.10;;;;;;4984742;28;20042;-60
2022/04/19 09:45:50;;;;;;;3.50;2.83;;;16.40;59.20;;;;;;4989272;28;20707;-60
2022/04/19 09:48:21;;;;;;;5.60;3.30;;;16.60;59.10;;;;;;4985403;28;20059;-60
2022/04/19 09:50:51;;;;;;;4.45;2.45;;;16.70;59.20;;;;;;4984619;28;20046;-60
2022/04/19 09:53:19;;;;;;;3.83;2.90;;;16.80;59.30;;;;;;4985534;28;20054;-60
2022/04/19 09:55:48;;;;;;;5.90;2.78;;;16.90;59.30;;;;;;4985728;28;20508;-60
2022/04/19 09:58:15;;;;;;;4.30;2.70;;;17.00;58.20;;;;;;4984390;28;20516;-60
2022/04/19 10:00:44;;;;;;;4.43;2.72;;;17.00;57.70;;;;;;4974859;28;20381;-60
2022/04/19 10:08:57;;;;;;;3.08;2.78;;;17.10;58.30;;;;;;4961686;28;20488;-60
2022/04/19 10:11:26;;;;;;;6.07;2.60;;;17.20;57.80;;;;;;4989321;28;20050;-59
2022/04/19 10:13:54;;;;;;;3.67;2.50;;;17.30;57.60;;;;;;4987050;28;20046;-60
2022/04/19 10:16:21;;;;;;;4.93;2.10;;;17.40;57.50;;;;;;4986103;28;20492;-60
2022/04/19 10:18:46;;;;;;;3.58;2.45;;;17.60;57.60;;;;;;4971609;28;20045;-61
2022/04/19 10:21:23;;;;;;;3.30;2.60;;;17.70;57.00;;;;;;4986402;28;20598;-60
2022/04/19 10:23:50;;;;;;;2.72;2.45;;;17.70;56.70;;;;;;4987180;28;20054;-60
2022/04/19 10:26:19;;;;;;;6.85;2.65;;;17.90;57.20;;;;;;4990720;28;20046;-61
2022/04/19 10:28:46;;;;;;;5.70;2.80;;;18.00;56.20;;;;;;4976087;28;20062;-60
2022/04/19 10:31:13;;;;;;;6.63;3.40;;;18.00;56.70;;;;;;4973764;28;20045;-61
2022/04/19 10:33:42;;;;;;;4.30;2.85;;;18.20;57.00;;;;;;4957765;28;20050;-61
2022/04/19 10:36:34;;;;;;;4.53;2.90;;;18.30;56.60;;;;;;4992202;28;20050;-61
2022/04/19 10:39:15;;;;;;;5.07;3.00;;;18.30;56.30;;;;;;4989402;28;20146;-61
2022/04/19 10:41:58;;;;;;;4.88;2.90;;;18.20;55.70;;;;;;4991281;28;20057;-61
2022/04/19 10:44:42;;;;;;;5.53;2.75;;;18.20;55.90;;;;;;4991343;28;20124;-61
2022/04/19 10:47:16;;;;;;;3.50;2.58;;;18.20;56.00;;;;;;4972366;28;20064;-61
2022/04/19 10:50:00;;;;;;;5.30;3.00;;;18.20;55.70;;;;;;4990742;28;20224;-61
2022/04/19 10:52:42;;;;;;;7.78;3.03;;;18.30;54.50;;;;;;4974876;28;20116;-61
2022/04/19 10:55:23;;;;;;;5.90;2.40;;;18.40;54.80;;;;;;4991116;28;20045;-60
2022/04/19 10:58:07;;;;;;;2.78;2.50;;;18.40;55.80;;;;;;4969990;28;20042;-60
2022/04/19 11:00:42;;;;;;;4.03;2.83;;;18.50;55.40;;;;;;4974324;28;20476;-61
2022/04/19 11:03:10;;;;;;;6.18;3.17;;;18.70;54.70;;;;;;4970922;28;20140;-61
2022/04/19 11:05:41;;;;;;;5.80;2.55;;;18.70;54.30;;;;;;4984501;28;21030;-59
2022/04/19 11:08:25;;;;;;;6.07;3.30;;;18.70;53.90;;;;;;4969305;28;20065;-61
2022/04/19 11:10:50;;;;;;;3.55;2.88;;;18.70;53.80;;;;;;4991561;28;20042;-61
2022/04/19 11:13:17;;;;;;;3.45;2.65;;;18.80;54.30;;;;;;4990859;28;20060;-61
2022/04/19 11:15:43;;;;;;;5.78;2.65;;;18.70;53.90;;;;;;4981490;28;20046;-61
2022/04/19 11:18:39;;;;;;;2.90;2.60;;;18.80;54.00;;;;;;4990096;28;20046;-61
2022/04/19 11:21:07;;;;;;;4.05;2.65;;;18.90;52.70;;;;;;4942122;28;20054;-61
2022/04/19 11:23:47;;;;;;;3.88;2.90;;;18.90;52.70;;;;;;4982455;28;20116;-62
2022/04/19 11:26:36;;;;;;;3.90;2.10;;;19.00;53.00;;;;;;4988125;28;20462;-62
2022/04/19 11:29:11;;;;;;;5.63;2.30;;;19.10;53.20;;;;;;4981607;28;20161;-62
2022/04/19 11:31:43;;;;;;;5.05;2.20;;;19.20;52.20;;;;;;4973009;28;20086;-62
2022/04/19 11:34:13;;;;;;;7.47;2.50;;;19.20;52.50;;;;;;4969421;28;20163;-62
2022/04/19 11:36:39;;;;;;;5.35;3.08;;;19.30;52.90;;;;;;4970256;28;20476;-62
2022/04/19 11:39:05;;;;;;;2.85;2.58;;;19.40;52.90;;;;;;4987447;28;20092;-62
2022/04/19 11:47:03;;;;;;;4.15;3.50;;;19.70;52.90;;;;;;4984126;28;20050;-62
2022/04/19 11:49:34;;;;;;;8.00;3.70;;;19.80;52.50;;;;;;4973406;28;20752;-61
2022/04/19 11:52:18;;;;;;;5.10;3.42;;;19.90;53.00;;;;;;4984567;28;20656;-61
2022/04/19 11:54:43;;;;;;;4.68;3.58;;;20.00;52.40;;;;;;4943382;28;20050;-62
2022/04/19 11:57:10;;;;;;;3.80;3.40;;;20.10;52.70;;;;;;4971027;28;20104;-62
2022/04/19 11:59:42;;;;;;;7.38;3.90;;;20.10;52.20;;;;;;4953699;28;20511;-62
2022/04/19 12:02:17;;;;;;;5.63;3.25;;;20.10;52.40;;;;;;4984162;28;20054;-62
2022/04/19 12:04:54;;;;;;;4.75;3.20;;;20.30;52.30;;;;;;4981945;28;20452;-61
2022/04/19 12:07:21;;;;;;;3.97;3.28;;;20.30;51.80;;;;;;4982865;28;20046;-61
2022/04/19 12:09:51;;;;;;;4.70;3.35;;;20.30;51.60;;;;;;4967081;28;20516;-62
2022/04/19 12:12:19;;;;;;;3.20;2.58;;;20.30;51.00;;;;;;4970130;28;20057;-70
2022/04/19 12:14:52;;;;;;;3.35;2.50;;;20.30;51.10;;;;;;4968381;28;20054;-69
2022/04/19 12:17:20;;;;;;;3.92;2.63;;;20.20;49.70;;;;;;4954127;28;20042;-70
2022/04/19 12:19:46;;;;;;;3.08;2.60;;;20.10;50.30;;;;;;4943209;28;21024;-69
2022/04/19 12:22:21;;;;;;;3.45;2.83;;;20.00;50.60;;;;;;4951878;28;20516;-69
2022/04/19 12:24:59;;;;;;;4.47;2.60;;;20.00;50.60;;;;;;4963840;28;20046;-69
2022/04/19 12:27:26;;;;;;;4.82;2.38;;;20.00;50.90;;;;;;4959455;28;20063;-69
2022/04/19 12:29:55;;;;;;;3.90;2.53;;;20.10;50.90;;;;;;4957861;28;20054;-69
2022/04/19 12:32:22;;;;;;;3.63;2.60;;;20.20;50.70;;;;;;4944909;28;20053;-69
2022/04/19 12:34:47;;;;;;;4.07;2.40;;;20.30;51.10;;;;;;4950792;28;20054;-69
2022/04/19 12:37:17;;;;;;;2.85;2.40;;;20.40;50.70;;;;;;4943242;28;20076;-69
2022/04/19 12:39:59;;;;;;;4.05;2.05;;;20.40;49.70;;;;;;4964960;28;20086;-69
2022/04/19 12:42:26;;;;;;;3.38;2.50;;;20.40;49.90;;;;;;4951638;28;20137;-69
2022/04/19 12:45:10;;;;;;;4.07;2.78;;;20.50;49.50;;;;;;4952102;28;20058;-69
2022/04/19 12:47:37;;;;;;;3.45;2.15;;;20.40;49.30;;;;;;4964230;28;20532;-70
2022/04/19 12:50:11;;;;;;;4.03;2.47;;;20.50;49.60;;;;;;4963893;28;20307;-69
2022/04/19 12:52:37;;;;;;;3.70;2.15;;;20.60;50.00;;;;;;4965879;28;20109;-70
2022/04/19 12:55:04;;;;;;;3.42;2.13;;;20.70;50.30;;;;;;4963752;28;20046;-70
2022/04/19 12:57:30;;;;;;;8.07;2.78;;;20.90;49.80;;;;;;4976846;28;20050;-70
2022/04/19 12:59:57;;;;;;;7.22;2.40;;;20.90;49.20;;;;;;4964042;28;20051;-70
2022/04/19 13:02:23;;;;;;;3.20;2.88;;;20.90;49.50;;;;;;4941800;28;20426;-70
2022/04/19 13:04:49;;;;;;;3.28;2.40;;;20.90;50.40;;;;;;4930179;28;20404;-71
2022/04/19 13:12:46;;;;;;;6.78;2.60;;;21.10;50.10;;;;;;4959927;28;20038;-70
2022/04/19 13:15:12;;;;;;;3.70;2.58;;;21.20;49.30;;;;;;4975375;28;20053;-70
2022/04/19 13:17:41;;;;;;;2.83;2.50;;;21.40;49.60;;;;;;4966313;28;20054;-71
2022/04/19 13:20:09;;;;;;;4.25;2.60;;;21.60;49.40;;;;;;4959518;28;20050;-70
2022/04/19 13:22:38;;;;;;;6.80;3.15;;;21.80;48.30;;;;;;4956213;28;20042;-70
2022/04/19 13:25:06;;;;;;;7.05;2.80;;;21.80;47.60;;;;;;4944297;28;20078;-70
2022/04/19 13:27:35;;;;;;;4.95;2.97;;;21.50;48.10;;;;;;4962870;28;20088;-71